sensor_id;sensor_type;location;lat;lon;timestamp;pressure;altitude;pressure_sealevel;temperature
35582;BMP180;21687;48.900;9.188;2023-01-16T00:01:26;97257.00;;;1.00
35582;BMP180;21687;48.900;9.188;2023-01-16T00:03:53;97254.00;;;1.20
35582;BMP180;21687;48.900;9.188;2023-01-16T00:06:19;97244.00;;;1.30
35582;BMP180;21687;48.900;9.188;2023-01-16T00:08:46;97235.00;;;1.50
35582;BMP180;21687;48.900;9.188;2023-01-16T00:11:14;97226.00;;;1.60
35582;BMP180;21687;48.900;9.188;2023-01-16T00:13:41;97230.00;;;1.70
35582;BMP180;21687;48.900;9.188;2023-01-16T00:16:07;97223.00;;;1.70
35582;BMP180;21687;48.900;9.188;2023-01-16T00:18:34;97212.00;;;1.70
35582;BMP180;21687;48.900;9.188;2023-01-16T00:21:00;97205.00;;;1.70
35582;BMP180;21687;48.900;9.188;2023-01-16T00:23:27;97219.00;;;1.90
35582;BMP180;21687;48.900;9.188;2023-01-16T00:25:53;97211.00;;;2.00
35582;BMP180;21687;48.900;9.188;2023-01-16T00:28:19;97206.00;;;2.10
35582;BMP180;21687;48.900;9.188;2023-01-16T00:30:46;97207.00;;;2.20
35582;BMP180;21687;48.900;9.188;2023-01-16T00:33:12;97192.00;;;2.30
35582;BMP180;21687;48.900;9.188;2023-01-16T00:35:38;97198.00;;;2.30
35582;BMP180;21687;48.900;9.188;2023-01-16T00:38:05;97182.00;;;2.40
35582;BMP180;21687;48.900;9.188;2023-01-16T00:40:31;97175.00;;;2.40
35582;BMP180;21687;48.900;9.188;2023-01-16T00:42:57;97177.00;;;2.50
35582;BMP180;21687;48.900;9.188;2023-01-16T00:45:23;97163.00;;;2.50
35582;BMP180;21687;48.900;9.188;2023-01-16T00:47:50;97158.00;;;2.50
35582;BMP180;21687;48.900;9.188;2023-01-16T00:50:16;97167.00;;;2.40
35582;BMP180;21687;48.900;9.188;2023-01-16T00:52:42;97154.00;;;2.50
35582;BMP180;21687;48.900;9.188;2023-01-16T00:55:09;97151.00;;;2.40
35582;BMP180;21687;48.900;9.188;2023-01-16T00:57:35;97148.00;;;2.30
35582;BMP180;21687;48.900;9.188;2023-01-16T01:00:01;97151.00;;;2.30
35582;BMP180;21687;48.900;9.188;2023-01-16T01:02:27;97134.00;;;2.10
35582;BMP180;21687;48.900;9.188;2023-01-16T01:04:54;97140.00;;;2.20
35582;BMP180;21687;48.900;9.188;2023-01-16T01:07:20;97132.00;;;2.20
35582;BMP180;21687;48.900;9.188;2023-01-16T01:09:46;97126.00;;;2.10
35582;BMP180;21687;48.900;9.188;2023-01-16T01:12:12;97128.00;;;2.00
35582;BMP180;21687;48.900;9.188;2023-01-16T01:14:38;97131.00;;;2.00
35582;BMP180;21687;48.900;9.188;2023-01-16T01:17:05;97120.00;;;2.00
35582;BMP180;21687;48.900;9.188;2023-01-16T01:19:31;97112.00;;;1.90
35582;BMP180;21687;48.900;9.188;2023-01-16T01:21:57;97116.00;;;1.80
35582;BMP180;21687;48.900;9.188;2023-01-16T01:24:23;97112.00;;;1.90
35582;BMP180;21687;48.900;9.188;2023-01-16T01:26:50;97110.00;;;1.90
35582;BMP180;21687;48.900;9.188;2023-01-16T01:29:16;97107.00;;;1.80
35582;BMP180;21687;48.900;9.188;2023-01-16T01:31:42;97109.00;;;1.90
35582;BMP180;21687;48.900;9.188;2023-01-16T01:34:08;97102.00;;;1.80
35582;BMP180;21687;48.900;9.188;2023-01-16T01:36:35;97093.00;;;1.80
35582;BMP180;21687;48.900;9.188;2023-01-16T01:39:01;97094.00;;;1.60
35582;BMP180;21687;48.900;9.188;2023-01-16T01:41:27;97090.00;;;1.60
35582;BMP180;21687;48.900;9.188;2023-01-16T01:43:55;97086.00;;;1.50
35582;BMP180;21687;48.900;9.188;2023-01-16T01:46:41;97079.00;;;1.50
35582;BMP180;21687;48.900;9.188;2023-01-16T01:51:47;97071.00;;;1.40
35582;BMP180;21687;48.900;9.188;2023-01-16T01:54:20;97066.00;;;1.40
35582;BMP180;21687;48.900;9.188;2023-01-16T01:56:58;97046.00;;;1.30
35582;BMP180;21687;48.900;9.188;2023-01-16T01:59:31;97056.00;;;1.20
35582;BMP180;21687;48.900;9.188;2023-01-16T02:01:59;97038.00;;;1.20
35582;BMP180;21687;48.900;9.188;2023-01-16T02:04:30;97036.00;;;1.10
35582;BMP180;21687;48.900;9.188;2023-01-16T02:07:04;97024.00;;;1.10
35582;BMP180;21687;48.900;9.188;2023-01-16T02:09:32;97027.00;;;1.10
35582;BMP180;21687;48.900;9.188;2023-01-16T02:12:08;97008.00;;;1.10
35582;BMP180;21687;48.900;9.188;2023-01-16T02:14:39;97000.00;;;1.00
35582;BMP180;21687;48.900;9.188;2023-01-16T02:17:16;96975.00;;;1.00
35582;BMP180;21687;48.900;9.188;2023-01-16T02:37:20;96941.00;;;0.90
35582;BMP180;21687;48.900;9.188;2023-01-16T02:40:19;96928.00;;;0.90
35582;BMP180;21687;48.900;9.188;2023-01-16T02:56:28;96859.00;;;0.80
35582;BMP180;21687;48.900;9.188;2023-01-16T02:58:57;96863.00;;;0.70
35582;BMP180;21687;48.900;9.188;2023-01-16T03:01:24;96850.00;;;0.50
35582;BMP180;21687;48.900;9.188;2023-01-16T03:04:04;96857.00;;;0.60
35582;BMP180;21687;48.900;9.188;2023-01-16T03:06:44;96845.00;;;0.60
35582;BMP180;21687;48.900;9.188;2023-01-16T03:09:31;96838.00;;;0.70
35582;BMP180;21687;48.900;9.188;2023-01-16T03:12:19;96836.00;;;0.70
35582;BMP180;21687;48.900;9.188;2023-01-16T03:20:48;96807.00;;;0.90
35582;BMP180;21687;48.900;9.188;2023-01-16T03:23:50;96811.00;;;0.90
35582;BMP180;21687;48.900;9.188;2023-01-16T03:26:26;96801.00;;;0.90
35582;BMP180;21687;48.900;9.188;2023-01-16T03:31:29;96794.00;;;1.00
35582;BMP180;21687;48.900;9.188;2023-01-16T03:34:11;96797.00;;;1.20
35582;BMP180;21687;48.900;9.188;2023-01-16T03:39:24;96780.00;;;1.50
35582;BMP180;21687;48.900;9.188;2023-01-16T03:41:53;96769.00;;;1.60
35582;BMP180;21687;48.900;9.188;2023-01-16T03:44:35;96772.00;;;1.60
35582;BMP180;21687;48.900;9.188;2023-01-16T03:47:03;96761.00;;;1.60
35582;BMP180;21687;48.900;9.188;2023-01-16T03:49:34;96757.00;;;1.50
35582;BMP180;21687;48.900;9.188;2023-01-16T03:52:04;96753.00;;;1.50
35582;BMP180;21687;48.900;9.188;2023-01-16T03:57:51;96731.00;;;1.50
35582;BMP180;21687;48.900;9.188;2023-01-16T04:00:19;96717.00;;;1.40
35582;BMP180;21687;48.900;9.188;2023-01-16T04:02:59;96714.00;;;1.40
35582;BMP180;21687;48.900;9.188;2023-01-16T04:05:31;96710.00;;;1.40
35582;BMP180;21687;48.900;9.188;2023-01-16T04:08:09;96699.00;;;1.20
35582;BMP180;21687;48.900;9.188;2023-01-16T04:10:41;96687.00;;;1.20
35582;BMP180;21687;48.900;9.188;2023-01-16T04:13:11;96688.00;;;1.00
35582;BMP180;21687;48.900;9.188;2023-01-16T04:15:42;96681.00;;;0.90
35582;BMP180;21687;48.900;9.188;2023-01-16T04:18:08;96689.00;;;0.80
35582;BMP180;21687;48.900;9.188;2023-01-16T04:20:36;96674.00;;;0.70
35582;BMP180;21687;48.900;9.188;2023-01-16T04:23:04;96665.00;;;0.60
35582;BMP180;21687;48.900;9.188;2023-01-16T04:25:30;96658.00;;;0.60
35582;BMP180;21687;48.900;9.188;2023-01-16T04:27:56;96647.00;;;0.50
35582;BMP180;21687;48.900;9.188;2023-01-16T04:30:23;96641.00;;;0.50
35582;BMP180;21687;48.900;9.188;2023-01-16T04:32:49;96627.00;;;0.30
35582;BMP180;21687;48.900;9.188;2023-01-16T04:35:15;96627.00;;;0.30
35582;BMP180;21687;48.900;9.188;2023-01-16T04:37:41;96621.00;;;0.20
35582;BMP180;21687;48.900;9.188;2023-01-16T04:40:08;96608.00;;;0.00
35582;BMP180;21687;48.900;9.188;2023-01-16T04:42:35;96594.00;;;-0.10
35582;BMP180;21687;48.900;9.188;2023-01-16T04:45:02;96586.00;;;0.00
35582;BMP180;21687;48.900;9.188;2023-01-16T04:47:29;96580.00;;;0.00
35582;BMP180;21687;48.900;9.188;2023-01-16T04:49:55;96577.00;;;0.00
35582;BMP180;21687;48.900;9.188;2023-01-16T04:52:21;96563.00;;;0.00
35582;BMP180;21687;48.900;9.188;2023-01-16T04:54:48;96563.00;;;-0.10
35582;BMP180;21687;48.900;9.188;2023-01-16T04:57:14;96549.00;;;0.00
35582;BMP180;21687;48.900;9.188;2023-01-16T04:59:40;96537.00;;;0.00
35582;BMP180;21687;48.900;9.188;2023-01-16T05:02:06;96533.00;;;-0.10
35582;BMP180;21687;48.900;9.188;2023-01-16T05:04:33;96524.00;;;-0.10
35582;BMP180;21687;48.900;9.188;2023-01-16T05:06:59;96522.00;;;0.00
35582;BMP180;21687;48.900;9.188;2023-01-16T05:09:25;96516.00;;;0.00
35582;BMP180;21687;48.900;9.188;2023-01-16T05:11:51;96507.00;;;0.00
35582;BMP180;21687;48.900;9.188;2023-01-16T05:14:18;96495.00;;;0.10
35582;BMP180;21687;48.900;9.188;2023-01-16T05:16:44;96495.00;;;0.10
35582;BMP180;21687;48.900;9.188;2023-01-16T05:19:10;96492.00;;;0.00
35582;BMP180;21687;48.900;9.188;2023-01-16T05:21:37;96467.00;;;-0.10
35582;BMP180;21687;48.900;9.188;2023-01-16T05:24:03;96461.00;;;0.00
35582;BMP180;21687;48.900;9.188;2023-01-16T05:26:30;96468.00;;;0.00
35582;BMP180;21687;48.900;9.188;2023-01-16T05:28:56;96458.00;;;0.00
35582;BMP180;21687;48.900;9.188;2023-01-16T05:31:23;96443.00;;;-0.10
35582;BMP180;21687;48.900;9.188;2023-01-16T05:33:50;96439.00;;;0.00
35582;BMP180;21687;48.900;9.188;2023-01-16T05:36:16;96442.00;;;-0.10
35582;BMP180;21687;48.900;9.188;2023-01-16T05:38:42;96437.00;;;0.00
35582;BMP180;21687;48.900;9.188;2023-01-16T05:41:09;96440.00;;;-0.10
35582;BMP180;21687;48.900;9.188;2023-01-16T05:43:35;96423.00;;;-0.10
35582;BMP180;21687;48.900;9.188;2023-01-16T05:46:01;96412.00;;;-0.10
35582;BMP180;21687;48.900;9.188;2023-01-16T05:48:29;96409.00;;;-0.20
35582;BMP180;21687;48.900;9.188;2023-01-16T05:50:59;96389.00;;;-0.30
35582;BMP180;21687;48.900;9.188;2023-01-16T05:53:25;96371.00;;;-0.20
35582;BMP180;21687;48.900;9.188;2023-01-16T05:55:54;96369.00;;;-0.10
35582;BMP180;21687;48.900;9.188;2023-01-16T05:58:20;96354.00;;;0.00
35582;BMP180;21687;48.900;9.188;2023-01-16T06:00:47;96341.00;;;0.00
35582;BMP180;21687;48.900;9.188;2023-01-16T06:03:13;96347.00;;;-0.10
35582;BMP180;21687;48.900;9.188;2023-01-16T06:05:41;96340.00;;;0.00
35582;BMP180;21687;48.900;9.188;2023-01-16T06:08:08;96345.00;;;0.10
35582;BMP180;21687;48.900;9.188;2023-01-16T06:10:35;96320.00;;;0.00
35582;BMP180;21687;48.900;9.188;2023-01-16T06:13:02;96311.00;;;0.10
35582;BMP180;21687;48.900;9.188;2023-01-16T06:15:31;96307.00;;;0.10
35582;BMP180;21687;48.900;9.188;2023-01-16T06:17:58;96298.00;;;0.30
35582;BMP180;21687;48.900;9.188;2023-01-16T06:20:24;96286.00;;;0.40
35582;BMP180;21687;48.900;9.188;2023-01-16T06:22:50;96293.00;;;0.40
35582;BMP180;21687;48.900;9.188;2023-01-16T06:25:16;96282.00;;;0.50
35582;BMP180;21687;48.900;9.188;2023-01-16T06:27:46;96274.00;;;0.50
35582;BMP180;21687;48.900;9.188;2023-01-16T06:30:13;96262.00;;;0.60
35582;BMP180;21687;48.900;9.188;2023-01-16T06:32:39;96255.00;;;0.60
35582;BMP180;21687;48.900;9.188;2023-01-16T06:35:06;96243.00;;;0.70
35582;BMP180;21687;48.900;9.188;2023-01-16T06:37:32;96231.00;;;0.80
35582;BMP180;21687;48.900;9.188;2023-01-16T06:39:58;96238.00;;;0.80
35582;BMP180;21687;48.900;9.188;2023-01-16T06:42:26;96231.00;;;0.80
35582;BMP180;21687;48.900;9.188;2023-01-16T06:44:52;96223.00;;;0.80
35582;BMP180;21687;48.900;9.188;2023-01-16T06:47:18;96219.00;;;0.90
35582;BMP180;21687;48.900;9.188;2023-01-16T06:49:45;96218.00;;;0.90
35582;BMP180;21687;48.900;9.188;2023-01-16T06:52:11;96228.00;;;1.00
35582;BMP180;21687;48.900;9.188;2023-01-16T06:54:37;96194.00;;;0.90
35582;BMP180;21687;48.900;9.188;2023-01-16T06:57:03;96206.00;;;1.00
35582;BMP180;21687;48.900;9.188;2023-01-16T06:59:30;96211.00;;;0.90
35582;BMP180;21687;48.900;9.188;2023-01-16T07:01:56;96201.00;;;0.90
35582;BMP180;21687;48.900;9.188;2023-01-16T07:04:22;96205.00;;;1.00
35582;BMP180;21687;48.900;9.188;2023-01-16T07:06:49;96191.00;;;0.90
35582;BMP180;21687;48.900;9.188;2023-01-16T07:09:18;96188.00;;;1.00
35582;BMP180;21687;48.900;9.188;2023-01-16T07:11:45;96178.00;;;1.10
35582;BMP180;21687;48.900;9.188;2023-01-16T07:14:12;96177.00;;;1.10
35582;BMP180;21687;48.900;9.188;2023-01-16T07:16:57;96164.00;;;1.10
35582;BMP180;21687;48.900;9.188;2023-01-16T07:19:42;96168.00;;;1.10
35582;BMP180;21687;48.900;9.188;2023-01-16T07:22:27;96172.00;;;1.10
35582;BMP180;21687;48.900;9.188;2023-01-16T07:25:11;96158.00;;;1.00
35582;BMP180;21687;48.900;9.188;2023-01-16T07:27:39;96162.00;;;1.10
35582;BMP180;21687;48.900;9.188;2023-01-16T07:30:07;96163.00;;;1.10
35582;BMP180;21687;48.900;9.188;2023-01-16T07:32:34;96149.00;;;1.10
35582;BMP180;21687;48.900;9.188;2023-01-16T07:35:01;96142.00;;;1.10
35582;BMP180;21687;48.900;9.188;2023-01-16T07:37:27;96145.00;;;1.20
35582;BMP180;21687;48.900;9.188;2023-01-16T07:39:53;96140.00;;;1.20
35582;BMP180;21687;48.900;9.188;2023-01-16T07:42:20;96131.00;;;1.30
35582;BMP180;21687;48.900;9.188;2023-01-16T07:44:46;96124.00;;;1.30
35582;BMP180;21687;48.900;9.188;2023-01-16T07:47:12;96130.00;;;1.30
35582;BMP180;21687;48.900;9.188;2023-01-16T07:49:39;96120.00;;;1.30
35582;BMP180;21687;48.900;9.188;2023-01-16T07:52:05;96113.00;;;1.20
35582;BMP180;21687;48.900;9.188;2023-01-16T07:54:31;96092.00;;;1.30
35582;BMP180;21687;48.900;9.188;2023-01-16T07:57:01;96102.00;;;1.50
35582;BMP180;21687;48.900;9.188;2023-01-16T07:59:28;96093.00;;;1.40
35582;BMP180;21687;48.900;9.188;2023-01-16T08:01:54;96086.00;;;1.50
35582;BMP180;21687;48.900;9.188;2023-01-16T08:04:20;96079.00;;;1.50
35582;BMP180;21687;48.900;9.188;2023-01-16T08:06:47;96071.00;;;1.50
35582;BMP180;21687;48.900;9.188;2023-01-16T08:09:13;96062.00;;;1.60
35582;BMP180;21687;48.900;9.188;2023-01-16T08:11:40;96054.00;;;1.60
35582;BMP180;21687;48.900;9.188;2023-01-16T08:14:07;96055.00;;;1.70
35582;BMP180;21687;48.900;9.188;2023-01-16T08:16:34;96058.00;;;1.70
35582;BMP180;21687;48.900;9.188;2023-01-16T08:19:00;96054.00;;;1.70
35582;BMP180;21687;48.900;9.188;2023-01-16T08:21:27;96047.00;;;1.70
35582;BMP180;21687;48.900;9.188;2023-01-16T08:23:53;96039.00;;;1.60
35582;BMP180;21687;48.900;9.188;2023-01-16T08:26:19;96034.00;;;1.70
35582;BMP180;21687;48.900;9.188;2023-01-16T08:28:46;96039.00;;;1.80
35582;BMP180;21687;48.900;9.188;2023-01-16T08:31:13;96016.00;;;1.70
35582;BMP180;21687;48.900;9.188;2023-01-16T08:33:41;96019.00;;;1.90
35582;BMP180;21687;48.900;9.188;2023-01-16T08:36:10;96015.00;;;1.90
35582;BMP180;21687;48.900;9.188;2023-01-16T08:38:37;96008.00;;;2.00
35582;BMP180;21687;48.900;9.188;2023-01-16T08:41:03;96009.00;;;2.10
35582;BMP180;21687;48.900;9.188;2023-01-16T08:43:30;96010.00;;;2.20
35582;BMP180;21687;48.900;9.188;2023-01-16T08:46:21;95987.00;;;2.30
35582;BMP180;21687;48.900;9.188;2023-01-16T08:49:12;96003.00;;;2.30
35582;BMP180;21687;48.900;9.188;2023-01-16T08:51:59;95994.00;;;2.40
35582;BMP180;21687;48.900;9.188;2023-01-16T08:54:25;95991.00;;;2.60
35582;BMP180;21687;48.900;9.188;2023-01-16T08:56:52;95995.00;;;2.80
35582;BMP180;21687;48.900;9.188;2023-01-16T08:59:18;96001.00;;;2.80
35582;BMP180;21687;48.900;9.188;2023-01-16T09:01:44;95971.00;;;2.80
35582;BMP180;21687;48.900;9.188;2023-01-16T09:04:10;96000.00;;;3.00
35582;BMP180;21687;48.900;9.188;2023-01-16T09:06:37;95997.00;;;3.10
35582;BMP180;21687;48.900;9.188;2023-01-16T09:09:07;95993.00;;;3.20
35582;BMP180;21687;48.900;9.188;2023-01-16T09:11:34;95992.00;;;3.20
35582;BMP180;21687;48.900;9.188;2023-01-16T09:14:20;95984.00;;;3.40
35582;BMP180;21687;48.900;9.188;2023-01-16T09:16:46;95995.00;;;3.30
35582;BMP180;21687;48.900;9.188;2023-01-16T09:19:13;96005.00;;;3.40
35582;BMP180;21687;48.900;9.188;2023-01-16T09:21:39;96009.00;;;3.50
35582;BMP180;21687;48.900;9.188;2023-01-16T09:24:05;96021.00;;;3.40
35582;BMP180;21687;48.900;9.188;2023-01-16T09:26:31;96031.00;;;3.40
35582;BMP180;21687;48.900;9.188;2023-01-16T09:28:58;96022.00;;;3.60
35582;BMP180;21687;48.900;9.188;2023-01-16T09:31:24;96033.00;;;3.60
35582;BMP180;21687;48.900;9.188;2023-01-16T09:33:50;96015.00;;;3.70
35582;BMP180;21687;48.900;9.188;2023-01-16T09:36:18;96003.00;;;3.70
35582;BMP180;21687;48.900;9.188;2023-01-16T09:38:44;95981.00;;;3.70
35582;BMP180;21687;48.900;9.188;2023-01-16T09:41:16;95967.00;;;3.70
35582;BMP180;21687;48.900;9.188;2023-01-16T09:44:06;95973.00;;;3.80
35582;BMP180;21687;48.900;9.188;2023-01-16T09:46:38;95952.00;;;3.80
35582;BMP180;21687;48.900;9.188;2023-01-16T09:49:22;95958.00;;;3.80
35582;BMP180;21687;48.900;9.188;2023-01-16T09:51:59;95950.00;;;3.80
35582;BMP180;21687;48.900;9.188;2023-01-16T09:54:54;95936.00;;;4.00
35582;BMP180;21687;48.900;9.188;2023-01-16T09:57:40;95938.00;;;4.00
35582;BMP180;21687;48.900;9.188;2023-01-16T10:00:29;95934.00;;;4.10
35582;BMP180;21687;48.900;9.188;2023-01-16T10:02:56;95933.00;;;4.10
35582;BMP180;21687;48.900;9.188;2023-01-16T10:05:27;95930.00;;;4.10
35582;BMP180;21687;48.900;9.188;2023-01-16T10:08:12;95924.00;;;4.20
35582;BMP180;21687;48.900;9.188;2023-01-16T10:11:03;95929.00;;;4.20
35582;BMP180;21687;48.900;9.188;2023-01-16T10:14:15;95920.00;;;4.20
35582;BMP180;21687;48.900;9.188;2023-01-16T10:16:39;95908.00;;;4.10
35582;BMP180;21687;48.900;9.188;2023-01-16T10:27:13;95871.00;;;4.40
35582;BMP180;21687;48.900;9.188;2023-01-16T10:29:51;95858.00;;;4.30
35582;BMP180;21687;48.900;9.188;2023-01-16T10:32:21;95866.00;;;4.30
35582;BMP180;21687;48.900;9.188;2023-01-16T10:37:21;95852.00;;;4.50
35582;BMP180;21687;48.900;9.188;2023-01-16T10:39:48;95860.00;;;4.60
35582;BMP180;21687;48.900;9.188;2023-01-16T10:42:18;95859.00;;;4.60
35582;BMP180;21687;48.900;9.188;2023-01-16T10:45:13;95846.00;;;4.80
35582;BMP180;21687;48.900;9.188;2023-01-16T10:47:58;95838.00;;;4.70
35582;BMP180;21687;48.900;9.188;2023-01-16T10:50:44;95832.00;;;4.80
35582;BMP180;21687;48.900;9.188;2023-01-16T10:53:12;95839.00;;;4.80
35582;BMP180;21687;48.900;9.188;2023-01-16T10:55:44;95833.00;;;4.90
35582;BMP180;21687;48.900;9.188;2023-01-16T10:58:26;95819.00;;;4.90
35582;BMP180;21687;48.900;9.188;2023-01-16T11:01:00;95796.00;;;5.00
35582;BMP180;21687;48.900;9.188;2023-01-16T11:06:24;95788.00;;;5.20
35582;BMP180;21687;48.900;9.188;2023-01-16T11:11:39;95779.00;;;5.20
35582;BMP180;21687;48.900;9.188;2023-01-16T11:14:34;95774.00;;;5.20
35582;BMP180;21687;48.900;9.188;2023-01-16T11:17:36;95775.00;;;5.30
35582;BMP180;21687;48.900;9.188;2023-01-16T11:20:33;95764.00;;;5.20
35582;BMP180;21687;48.900;9.188;2023-01-16T11:23:16;95774.00;;;5.20
35582;BMP180;21687;48.900;9.188;2023-01-16T11:25:45;95768.00;;;5.20
35582;BMP180;21687;48.900;9.188;2023-01-16T11:28:22;95761.00;;;5.20
35582;BMP180;21687;48.900;9.188;2023-01-16T11:30:52;95752.00;;;5.30
35582;BMP180;21687;48.900;9.188;2023-01-16T11:33:22;95742.00;;;5.30
35582;BMP180;21687;48.900;9.188;2023-01-16T11:36:01;95732.00;;;5.30
35582;BMP180;21687;48.900;9.188;2023-01-16T11:38:31;95735.00;;;5.30
35582;BMP180;21687;48.900;9.188;2023-01-16T11:41:00;95722.00;;;5.30
35582;BMP180;21687;48.900;9.188;2023-01-16T11:43:27;95708.00;;;5.30
35582;BMP180;21687;48.900;9.188;2023-01-16T11:46:40;95721.00;;;5.30
35582;BMP180;21687;48.900;9.188;2023-01-16T11:49:18;95698.00;;;5.40
35582;BMP180;21687;48.900;9.188;2023-01-16T11:51:52;95691.00;;;5.40
35582;BMP180;21687;48.900;9.188;2023-01-16T11:54:27;95687.00;;;5.40
35582;BMP180;21687;48.900;9.188;2023-01-16T12:05:19;95664.00;;;5.70
35582;BMP180;21687;48.900;9.188;2023-01-16T12:13:45;95643.00;;;5.80
35582;BMP180;21687;48.900;9.188;2023-01-16T12:19:53;95628.00;;;5.90
35582;BMP180;21687;48.900;9.188;2023-01-16T12:28:14;95615.00;;;5.90
35582;BMP180;21687;48.900;9.188;2023-01-16T12:42:52;95597.00;;;6.10
35582;BMP180;21687;48.900;9.188;2023-01-16T12:48:27;95585.00;;;6.20
35582;BMP180;21687;48.900;9.188;2023-01-16T12:51:10;95592.00;;;6.30
35582;BMP180;21687;48.900;9.188;2023-01-16T12:53:56;95576.00;;;6.40
35582;BMP180;21687;48.900;9.188;2023-01-16T12:59:15;95557.00;;;6.50
35582;BMP180;21687;48.900;9.188;2023-01-16T13:01:44;95540.00;;;6.50
35582;BMP180;21687;48.900;9.188;2023-01-16T13:04:22;95546.00;;;6.60
35582;BMP180;21687;48.900;9.188;2023-01-16T13:06:55;95531.00;;;6.70
35582;BMP180;21687;48.900;9.188;2023-01-16T13:09:30;95521.00;;;6.60
35582;BMP180;21687;48.900;9.188;2023-01-16T13:14:53;95522.00;;;6.70
35582;BMP180;21687;48.900;9.188;2023-01-16T13:17:26;95513.00;;;6.90
35582;BMP180;21687;48.900;9.188;2023-01-16T13:20:01;95508.00;;;6.80
35582;BMP180;21687;48.900;9.188;2023-01-16T13:22:38;95511.00;;;6.80
35582;BMP180;21687;48.900;9.188;2023-01-16T13:25:26;95516.00;;;6.90
35582;BMP180;21687;48.900;9.188;2023-01-16T13:28:02;95502.00;;;6.80
35582;BMP180;21687;48.900;9.188;2023-01-16T13:30:29;95499.00;;;6.90
35582;BMP180;21687;48.900;9.188;2023-01-16T13:32:59;95488.00;;;7.00
35582;BMP180;21687;48.900;9.188;2023-01-16T13:35:30;95473.00;;;7.00
35582;BMP180;21687;48.900;9.188;2023-01-16T13:43:37;95469.00;;;7.30
35582;BMP180;21687;48.900;9.188;2023-01-16T13:46:23;95449.00;;;7.50
35582;BMP180;21687;48.900;9.188;2023-01-16T13:48:52;95442.00;;;7.60
35582;BMP180;21687;48.900;9.188;2023-01-16T13:51:21;95433.00;;;7.80
35582;BMP180;21687;48.900;9.188;2023-01-16T13:53:59;95447.00;;;7.90
35582;BMP180;21687;48.900;9.188;2023-01-16T13:56:29;95441.00;;;7.90
35582;BMP180;21687;48.900;9.188;2023-01-16T13:59:06;95442.00;;;7.90
35582;BMP180;21687;48.900;9.188;2023-01-16T14:06:53;95438.00;;;8.00
35582;BMP180;21687;48.900;9.188;2023-01-16T14:10:15;95430.00;;;8.10
35582;BMP180;21687;48.900;9.188;2023-01-16T14:13:00;95437.00;;;8.10
35582;BMP180;21687;48.900;9.188;2023-01-16T14:18:43;95415.00;;;8.10
35582;BMP180;21687;48.900;9.188;2023-01-16T14:21:38;95408.00;;;7.90
35582;BMP180;21687;48.900;9.188;2023-01-16T14:24:14;95410.00;;;7.70
35582;BMP180;21687;48.900;9.188;2023-01-16T14:26:54;95395.00;;;7.40
35582;BMP180;21687;48.900;9.188;2023-01-16T14:29:25;95399.00;;;7.20
35582;BMP180;21687;48.900;9.188;2023-01-16T14:32:14;95400.00;;;7.10
35582;BMP180;21687;48.900;9.188;2023-01-16T14:34:58;95402.00;;;6.90
35582;BMP180;21687;48.900;9.188;2023-01-16T14:37:33;95386.00;;;6.80
35582;BMP180;21687;48.900;9.188;2023-01-16T14:42:46;95387.00;;;6.60
35582;BMP180;21687;48.900;9.188;2023-01-16T14:45:39;95370.00;;;6.60
35582;BMP180;21687;48.900;9.188;2023-01-16T14:57:20;95342.00;;;6.00
35582;BMP180;21687;48.900;9.188;2023-01-16T14:59:58;95340.00;;;5.90
35582;BMP180;21687;48.900;9.188;2023-01-16T15:02:40;95326.00;;;5.70
35582;BMP180;21687;48.900;9.188;2023-01-16T15:05:13;95310.00;;;5.60
35582;BMP180;21687;48.900;9.188;2023-01-16T15:07:54;95318.00;;;5.60
35582;BMP180;21687;48.900;9.188;2023-01-16T15:10:30;95311.00;;;5.60
35582;BMP180;21687;48.900;9.188;2023-01-16T15:16:07;95310.00;;;5.60
35582;BMP180;21687;48.900;9.188;2023-01-16T15:18:42;95307.00;;;5.70
35582;BMP180;21687;48.900;9.188;2023-01-16T15:21:27;95308.00;;;5.80
35582;BMP180;21687;48.900;9.188;2023-01-16T15:24:18;95313.00;;;5.90
35582;BMP180;21687;48.900;9.188;2023-01-16T15:26:51;95305.00;;;5.70
35582;BMP180;21687;48.900;9.188;2023-01-16T15:29:43;95311.00;;;5.80
35582;BMP180;21687;48.900;9.188;2023-01-16T15:32:15;95317.00;;;5.80
35582;BMP180;21687;48.900;9.188;2023-01-16T15:34:47;95335.00;;;5.90
35582;BMP180;21687;48.900;9.188;2023-01-16T15:37:23;95317.00;;;5.90
35582;BMP180;21687;48.900;9.188;2023-01-16T15:39:53;95328.00;;;6.00
35582;BMP180;21687;48.900;9.188;2023-01-16T15:48:34;95310.00;;;5.70
35582;BMP180;21687;48.900;9.188;2023-01-16T15:51:10;95321.00;;;5.50
35582;BMP180;21687;48.900;9.188;2023-01-16T15:53:39;95308.00;;;5.30
35582;BMP180;21687;48.900;9.188;2023-01-16T15:56:38;95308.00;;;5.20
35582;BMP180;21687;48.900;9.188;2023-01-16T15:59:19;95314.00;;;5.20
35582;BMP180;21687;48.900;9.188;2023-01-16T16:01:46;95301.00;;;5.10
35582;BMP180;21687;48.900;9.188;2023-01-16T16:04:12;95317.00;;;5.00
35582;BMP180;21687;48.900;9.188;2023-01-16T16:06:39;95310.00;;;4.90
35582;BMP180;21687;48.900;9.188;2023-01-16T16:09:13;95308.00;;;4.90
35582;BMP180;21687;48.900;9.188;2023-01-16T16:11:42;95296.00;;;4.80
35582;BMP180;21687;48.900;9.188;2023-01-16T16:14:28;95310.00;;;4.80
35582;BMP180;21687;48.900;9.188;2023-01-16T16:17:23;95306.00;;;4.70
35582;BMP180;21687;48.900;9.188;2023-01-16T16:20:38;95314.00;;;4.70
35582;BMP180;21687;48.900;9.188;2023-01-16T16:25:56;95303.00;;;4.60
35582;BMP180;21687;48.900;9.188;2023-01-16T16:31:09;95307.00;;;4.50
35582;BMP180;21687;48.900;9.188;2023-01-16T16:33:38;95315.00;;;4.40
35582;BMP180;21687;48.900;9.188;2023-01-16T16:36:05;95317.00;;;4.30
35582;BMP180;21687;48.900;9.188;2023-01-16T16:38:51;95315.00;;;4.20
35582;BMP180;21687;48.900;9.188;2023-01-16T16:44:33;95321.00;;;4.10
35582;BMP180;21687;48.900;9.188;2023-01-16T16:46:59;95323.00;;;4.10
35582;BMP180;21687;48.900;9.188;2023-01-16T16:49:26;95313.00;;;4.00
35582;BMP180;21687;48.900;9.188;2023-01-16T16:51:53;95321.00;;;3.90
35582;BMP180;21687;48.900;9.188;2023-01-16T16:54:25;95327.00;;;3.80
35582;BMP180;21687;48.900;9.188;2023-01-16T16:56:57;95335.00;;;3.80
35582;BMP180;21687;48.900;9.188;2023-01-16T16:59:26;95326.00;;;3.80
35582;BMP180;21687;48.900;9.188;2023-01-16T17:01:57;95326.00;;;3.70
35582;BMP180;21687;48.900;9.188;2023-01-16T17:04:30;95319.00;;;3.60
35582;BMP180;21687;48.900;9.188;2023-01-16T17:06:57;95326.00;;;3.60
35582;BMP180;21687;48.900;9.188;2023-01-16T17:09:25;95331.00;;;3.50
35582;BMP180;21687;48.900;9.188;2023-01-16T17:11:52;95320.00;;;3.60
35582;BMP180;21687;48.900;9.188;2023-01-16T17:14:18;95321.00;;;3.50
35582;BMP180;21687;48.900;9.188;2023-01-16T17:16:44;95324.00;;;3.50
35582;BMP180;21687;48.900;9.188;2023-01-16T17:19:30;95321.00;;;3.50
35582;BMP180;21687;48.900;9.188;2023-01-16T17:21:57;95323.00;;;3.40